createdAt,value
2023-02-08T00:01:16.625Z,85.17
2023-02-08T00:03:43.223Z,86.61
2023-02-08T00:06:10.685Z,86.75
2023-02-08T00:08:37.732Z,89.62
2023-02-08T00:11:05.715Z,90.53
2023-02-08T00:13:33.015Z,88.92
2023-02-08T00:16:18.851Z,87.31
2023-02-08T00:18:45.517Z,87.86
2023-02-08T00:21:15.660Z,88.47
2023-02-08T00:23:42.416Z,89.86
2023-02-08T00:26:09.521Z,89.82
2023-02-08T00:28:37.798Z,88.38
2023-02-08T00:31:05.414Z,87.11
2023-02-08T00:33:32.091Z,89.11
2023-02-08T00:36:04.610Z,87.26
2023-02-08T00:38:31.213Z,87.80
2023-02-08T00:40:57.742Z,86.63
2023-02-08T00:43:24.270Z,87.46
2023-02-08T00:45:55.511Z,87.40
2023-02-08T00:48:22.233Z,85.29
2023-02-08T00:51:07.513Z,86.80
2023-02-08T00:53:38.940Z,87.41
2023-02-08T00:56:07.262Z,86.96
2023-02-08T00:58:34.887Z,86.16
2023-02-08T01:01:03.527Z,86.32
2023-02-08T01:03:30.024Z,85.60
2023-02-08T01:06:01.703Z,86.59
2023-02-08T01:08:28.219Z,85.90
2023-02-08T01:11:10.135Z,86.72
2023-02-08T01:13:38.139Z,87.76
2023-02-08T01:16:15.134Z,85.68
2023-02-08T01:19:01.830Z,87.95
2023-02-08T01:21:49.150Z,87.86
2023-02-08T01:24:15.754Z,87.96
2023-02-08T01:27:00.879Z,88.52
2023-02-08T01:29:47.636Z,88.43
2023-02-08T01:32:34.446Z,89.76
2023-02-08T01:35:21.176Z,88.09
2023-02-08T01:38:08.002Z,88.15
2023-02-08T01:40:55.018Z,88.48
2023-02-08T01:44:02.125Z,90.28
2023-02-08T01:46:51.119Z,89.26
2023-02-08T01:49:37.996Z,88.36
2023-02-08T01:52:21.990Z,87.90
2023-02-08T01:54:56.206Z,90.23
2023-02-08T01:57:42.898Z,89.37
2023-02-08T02:00:28.383Z,90.94
2023-02-08T02:03:14.388Z,89.46
2023-02-08T02:06:14.088Z,90.70
2023-02-08T02:09:17.626Z,89.57
2023-02-08T02:12:07.753Z,88.30
2023-02-08T02:14:55.267Z,90.32
2023-02-08T02:17:42.260Z,89.70
2023-02-08T02:20:29.240Z,89.89
2023-02-08T02:23:16.883Z,91.30
2023-02-08T02:25:58.380Z,90.89
2023-02-08T02:28:36.433Z,92.63
2023-02-08T02:31:23.477Z,92.15
2023-02-08T02:34:23.200Z,92.12
2023-02-08T02:37:15.891Z,94.19
2023-02-08T02:40:08.493Z,90.69
2023-02-08T02:43:07.270Z,91.63
2023-02-08T02:45:39.870Z,91.80
2023-02-08T02:48:17.180Z,90.45
2023-02-08T02:51:31.759Z,90.62
2023-02-08T02:54:25.649Z,93.17
2023-02-08T02:57:16.085Z,92.59
2023-02-08T03:00:08.729Z,91.48
2023-02-08T03:02:56.094Z,95.30
2023-02-08T03:05:42.928Z,95.24
2023-02-08T03:09:09.879Z,91.48
2023-02-08T03:12:34.412Z,92.66
2023-02-08T03:15:51.811Z,95.54
2023-02-08T03:18:33.592Z,94.17
2023-02-08T03:21:19.296Z,95.55
2023-02-08T03:24:01.611Z,95.94
2023-02-08T03:27:12.276Z,94.71
2023-02-08T03:30:10.901Z,96.29
2023-02-08T03:32:40.334Z,95.33
2023-02-08T03:35:15.334Z,94.03
2023-02-08T03:37:58.253Z,96.78
2023-02-08T03:40:31.072Z,96.87
2023-02-08T03:43:03.474Z,96.14
2023-02-08T03:46:03.123Z,95.20
2023-02-08T03:48:31.800Z,94.31
2023-02-08T03:51:01.895Z,94.77
2023-02-08T03:53:32.477Z,94.57
2023-02-08T03:56:04.988Z,93.35
2023-02-08T03:58:38.600Z,95.87
2023-02-08T04:01:31.967Z,94.55
2023-02-08T04:03:59.837Z,94.88
2023-02-08T04:06:26.692Z,95.69
2023-02-08T04:08:56.418Z,93.52
2023-02-08T04:11:53.098Z,92.35
2023-02-08T04:14:38.158Z,94.12
2023-02-08T04:17:06.026Z,94.12
2023-02-08T04:19:51.278Z,92.69
2023-02-08T04:22:18.671Z,92.51
2023-02-08T04:25:04.394Z,92.30
2023-02-08T04:27:56.736Z,91.94
2023-02-08T04:30:42.004Z,93.53
2023-02-08T04:33:27.333Z,92.10
2023-02-08T04:36:12.737Z,92.20
2023-02-08T04:38:57.600Z,93.22
2023-02-08T04:41:24.089Z,93.26
2023-02-08T04:43:50.541Z,92.12
2023-02-08T04:46:35.499Z,92.54
2023-02-08T04:49:21.022Z,92.30
2023-02-08T04:52:06.706Z,93.56
2023-02-08T04:54:53.481Z,91.96
2023-02-08T04:57:20.096Z,91.48
2023-02-08T04:59:46.527Z,92.82
2023-02-08T05:02:12.991Z,92.78
2023-02-08T05:04:39.469Z,94.33
2023-02-08T05:07:05.937Z,92.81
2023-02-08T05:09:33.071Z,92.48
2023-02-08T05:11:59.587Z,93.76
2023-02-08T05:14:44.954Z,93.81
2023-02-08T05:17:19.038Z,93.33
2023-02-08T05:20:04.913Z,93.88
2023-02-08T05:22:50.005Z,93.07
2023-02-08T05:25:35.027Z,92.12
2023-02-08T05:28:17.204Z,94.11
2023-02-08T05:31:18.544Z,95.36
2023-02-08T05:34:03.897Z,93.43
2023-02-08T05:36:50.734Z,93.39
2023-02-08T05:39:37.499Z,94.96
2023-02-08T05:42:24.263Z,92.60
2023-02-08T05:45:11.068Z,92.97
2023-02-08T05:47:57.956Z,93.01
2023-02-08T05:50:44.746Z,95.19
2023-02-08T05:53:31.765Z,92.61
2023-02-08T05:56:18.613Z,91.79
2023-02-08T05:59:05.401Z,93.29
2023-02-08T06:01:52.165Z,93.95
2023-02-08T06:04:39.242Z,94.20
2023-02-08T06:07:26.130Z,92.62
2023-02-08T06:10:12.902Z,91.86
2023-02-08T06:12:59.712Z,94.06
2023-02-08T06:15:46.565Z,93.98
2023-02-08T06:18:33.358Z,91.46
2023-02-08T06:21:20.120Z,93.37
2023-02-08T06:23:46.700Z,93.73
2023-02-08T06:26:13.291Z,93.19
2023-02-08T06:29:00.432Z,93.13
2023-02-08T06:31:45.295Z,92.65
2023-02-08T06:34:32.099Z,92.35
2023-02-08T06:37:02.160Z,93.07
2023-02-08T06:39:29.660Z,92.48
2023-02-08T06:41:56.132Z,93.24
2023-02-08T06:44:22.661Z,91.43
2023-02-08T06:46:49.442Z,91.08
2023-02-08T06:49:16.187Z,91.59
2023-02-08T06:51:42.816Z,91.34
2023-02-08T06:54:10.035Z,90.90
2023-02-08T06:56:36.719Z,91.49
2023-02-08T06:59:21.983Z,91.62
2023-02-08T07:01:48.451Z,92.39
2023-02-08T07:04:14.945Z,91.23
2023-02-08T07:06:41.437Z,90.88
2023-02-08T07:09:26.580Z,89.27
2023-02-08T07:12:12.121Z,88.98
2023-02-08T07:14:41.371Z,90.12
2023-02-08T07:17:07.956Z,89.00
2023-02-08T07:19:34.526Z,90.38
2023-02-08T07:22:07.941Z,91.05
2023-02-08T07:24:52.833Z,90.56
2023-02-08T07:27:38.119Z,89.97
2023-02-08T07:30:05.858Z,90.68
2023-02-08T07:32:34.758Z,92.34
2023-02-08T07:35:19.820Z,91.62
2023-02-08T07:38:04.802Z,90.36
2023-02-08T07:40:32.125Z,89.85
2023-02-08T07:42:58.635Z,91.21
2023-02-08T07:45:25.741Z,89.92
2023-02-08T07:47:52.252Z,89.94
2023-02-08T07:50:37.225Z,89.53
2023-02-08T07:53:03.761Z,90.47
2023-02-08T07:55:32.213Z,89.12
2023-02-08T07:58:17.541Z,89.08
2023-02-08T08:00:44.376Z,88.25
2023-02-08T08:03:10.891Z,88.52
2023-02-08T08:05:41.077Z,88.58
2023-02-08T08:08:26.283Z,87.83
2023-02-08T08:10:52.935Z,87.71
2023-02-08T08:13:19.391Z,85.86
2023-02-08T08:15:47.345Z,85.91
2023-02-08T08:18:14.163Z,85.26
2023-02-08T08:20:40.961Z,85.10
2023-02-08T08:23:07.915Z,85.79
2023-02-08T08:25:34.522Z,84.55
2023-02-08T08:28:02.059Z,84.19
2023-02-08T08:30:28.602Z,83.49
2023-02-08T08:32:55.046Z,83.69
2023-02-08T08:35:35.327Z,82.59
2023-02-08T08:38:01.816Z,82.95
2023-02-08T08:40:29.793Z,83.48
2023-02-08T08:43:15.942Z,84.35
2023-02-08T08:45:42.526Z,83.34
2023-02-08T08:48:09.546Z,83.55
2023-02-08T08:50:36.064Z,82.99
2023-02-08T08:53:22.094Z,82.48
2023-02-08T08:56:07.319Z,81.53
2023-02-08T08:58:52.446Z,80.97
2023-02-08T09:01:38.862Z,82.14
2023-02-08T09:04:05.509Z,81.44
2023-02-08T09:06:32.165Z,80.03
2023-02-08T09:08:58.654Z,80.04
2023-02-08T09:11:25.826Z,80.34
2023-02-08T09:13:55.388Z,80.33
2023-02-08T09:16:23.989Z,80.03
2023-02-08T09:18:50.852Z,79.76
2023-02-08T09:21:21.033Z,80.18
2023-02-08T09:23:48.118Z,79.97
2023-02-08T09:26:18.063Z,79.75
2023-02-08T09:28:44.827Z,80.39
2023-02-08T09:31:18.652Z,79.89
2023-02-08T09:33:45.220Z,79.21
2023-02-08T09:36:11.723Z,78.94
2023-02-08T09:38:42.047Z,78.98
2023-02-08T09:41:42.646Z,78.83
2023-02-08T09:44:20.347Z,79.12
2023-02-08T09:47:18.469Z,78.18
2023-02-08T09:50:14.095Z,76.76
2023-02-08T09:52:45.540Z,76.74
2023-02-08T09:55:36.897Z,76.25
2023-02-08T09:58:15.678Z,74.72
2023-02-08T10:00:45.667Z,74.56
2023-02-08T10:03:27.946Z,74.29
2023-02-08T10:05:54.921Z,73.94
2023-02-08T10:08:22.914Z,74.17
2023-02-08T10:10:58.992Z,73.35
2023-02-08T10:13:56.764Z,72.80
2023-02-08T10:16:35.862Z,73.18
2023-02-08T10:19:16.972Z,72.83
2023-02-08T10:22:00.323Z,72.02
2023-02-08T10:24:45.327Z,72.73
2023-02-08T10:27:17.806Z,72.11
2023-02-08T10:30:15.310Z,71.69
2023-02-08T10:33:02.609Z,70.96
2023-02-08T10:35:39.976Z,70.56
2023-02-08T10:38:45.350Z,70.31
2023-02-08T10:44:36.212Z,69.56
2023-02-08T10:47:42.900Z,69.24
2023-02-08T10:50:46.447Z,68.50
2023-02-08T10:53:18.469Z,68.00
2023-02-08T10:55:51.848Z,67.90
2023-02-08T10:58:28.053Z,68.07
2023-02-08T11:00:55.483Z,67.12
2023-02-08T11:04:04.103Z,67.68
2023-02-08T11:06:34.941Z,66.84
2023-02-08T11:09:01.774Z,66.08
2023-02-08T11:11:38.565Z,66.49
2023-02-08T11:14:22.272Z,65.24
2023-02-08T11:17:03.072Z,66.03
2023-02-08T11:19:49.246Z,65.87
2023-02-08T11:22:22.221Z,65.21
2023-02-08T11:25:04.443Z,64.27
2023-02-08T11:28:02.377Z,63.71
2023-02-08T11:30:29.326Z,63.45
2023-02-08T11:33:21.892Z,63.85
2023-02-08T11:35:57.694Z,64.14
2023-02-08T11:38:29.407Z,62.35
2023-02-08T11:41:00.891Z,62.42
2023-02-08T11:43:36.897Z,62.95
2023-02-08T11:46:06.607Z,61.51
2023-02-08T11:48:42.806Z,60.31
2023-02-08T11:51:13.237Z,61.61
2023-02-08T11:53:45.958Z,60.95
2023-02-08T11:56:27.728Z,59.43
2023-02-08T11:58:57.160Z,60.03
2023-02-08T12:01:29.381Z,60.65
2023-02-08T12:03:59.441Z,61.15
2023-02-08T12:06:37.784Z,59.79
2023-02-08T12:09:18.518Z,59.61
2023-02-08T12:11:48.161Z,60.29
2023-02-08T12:14:18.499Z,59.81
2023-02-08T12:17:00.110Z,59.75
2023-02-08T12:19:53.336Z,57.60
2023-02-08T12:22:27.755Z,57.78
2023-02-08T12:25:20.348Z,58.40
2023-02-08T12:28:25.230Z,57.75
2023-02-08T12:31:01.840Z,57.12
2023-02-08T12:33:35.944Z,58.55
2023-02-08T12:36:26.986Z,57.74
2023-02-08T12:39:26.024Z,57.07
2023-02-08T12:42:11.234Z,57.51
2023-02-08T12:45:05.322Z,58.13
2023-02-08T12:48:04.005Z,58.06
2023-02-08T12:50:51.151Z,56.94
2023-02-08T12:53:31.624Z,56.72
2023-02-08T12:56:02.135Z,55.42
2023-02-08T12:58:45.595Z,53.96
2023-02-08T13:01:23.072Z,52.37
2023-02-08T13:04:16.420Z,51.88
2023-02-08T13:07:14.811Z,51.04
2023-02-08T13:10:06.429Z,51.98
2023-02-08T13:12:56.793Z,51.38
2023-02-08T13:15:36.265Z,51.47
2023-02-08T13:18:12.639Z,51.28
2023-02-08T13:20:51.296Z,51.24
2023-02-08T13:23:29.743Z,49.27
2023-02-08T13:26:01.845Z,49.45
2023-02-08T13:28:29.000Z,49.75
2023-02-08T13:31:11.444Z,49.96
2023-02-08T13:33:55.619Z,51.77
2023-02-08T13:37:01.912Z,48.97
2023-02-08T13:39:48.952Z,48.09
2023-02-08T13:42:30.458Z,48.31
2023-02-08T13:45:26.930Z,48.25
2023-02-08T13:48:00.824Z,48.21
2023-02-08T13:50:50.864Z,48.92
2023-02-08T13:53:37.826Z,48.58
2023-02-08T13:56:09.554Z,49.40
2023-02-08T13:58:48.801Z,48.78
2023-02-08T14:01:22.729Z,49.36
2023-02-08T14:04:07.589Z,49.70
2023-02-08T14:07:11.122Z,49.25
2023-02-08T14:10:01.862Z,48.95
2023-02-08T14:13:06.915Z,49.39
2023-02-08T14:15:44.128Z,50.74
2023-02-08T14:18:30.297Z,49.32
2023-02-08T14:21:33.544Z,48.54
2023-02-08T14:25:02.324Z,47.76
2023-02-08T14:27:57.157Z,46.06
2023-02-08T14:30:30.255Z,45.74
2023-02-08T14:33:08.427Z,44.96
2023-02-08T14:35:38.916Z,44.60
2023-02-08T14:38:20.680Z,45.44
2023-02-08T14:40:50.380Z,45.32
2023-02-08T14:43:19.770Z,44.29
2023-02-08T14:45:50.808Z,44.26
2023-02-08T14:48:42.532Z,44.68
2023-02-08T14:51:11.989Z,44.57
2023-02-08T14:53:57.308Z,44.60
2023-02-08T14:56:33.709Z,44.38
2023-02-08T14:59:06.600Z,44.77
2023-02-08T15:01:48.812Z,45.15
2023-02-08T15:04:18.103Z,45.45
2023-02-08T15:07:14.548Z,45.35
2023-02-08T15:09:43.454Z,46.18
2023-02-08T15:12:31.644Z,45.73
2023-02-08T15:15:00.861Z,44.83
2023-02-08T15:17:57.238Z,44.58
2023-02-08T15:20:27.628Z,44.41
2023-02-08T15:23:18.697Z,44.33
2023-02-08T15:25:55.023Z,45.85
2023-02-08T15:28:24.191Z,46.60
2023-02-08T15:31:10.786Z,44.22
2023-02-08T15:33:39.302Z,44.75
2023-02-08T15:36:16.278Z,44.84
2023-02-08T15:38:44.930Z,44.58
2023-02-08T15:41:33.827Z,44.52
2023-02-08T15:44:23.127Z,44.59
2023-02-08T15:49:30.247Z,46.04
2023-02-08T15:51:57.755Z,46.11
2023-02-08T15:54:24.928Z,46.32
2023-02-08T15:56:59.377Z,45.80
2023-02-08T15:59:29.272Z,46.20
2023-02-08T16:01:58.270Z,46.31
2023-02-08T16:04:25.736Z,46.69
2023-02-08T16:07:00.622Z,47.37
2023-02-08T16:09:28.926Z,47.10
2023-02-08T16:11:59.188Z,47.82
2023-02-08T16:14:29.842Z,48.09
2023-02-08T16:16:58.290Z,48.78
2023-02-08T16:19:29.133Z,48.82
2023-02-08T16:22:25.786Z,49.18
2023-02-08T16:24:52.403Z,49.85
2023-02-08T16:27:30.084Z,50.13
2023-02-08T16:29:57.074Z,51.00
2023-02-08T16:32:39.569Z,51.33
2023-02-08T16:35:29.462Z,51.86
2023-02-08T16:38:02.626Z,51.57
2023-02-08T16:41:12.603Z,52.25
2023-02-08T16:43:47.738Z,52.08
2023-02-08T16:46:14.879Z,53.51
2023-02-08T16:48:42.511Z,52.97
2023-02-08T16:51:16.710Z,53.16
2023-02-08T16:53:47.624Z,53.55
2023-02-08T16:56:14.676Z,53.81
2023-02-08T16:58:41.266Z,54.44
2023-02-08T17:01:14.005Z,54.72
2023-02-08T17:03:57.379Z,54.89
2023-02-08T17:06:30.153Z,54.41
2023-02-08T17:09:25.616Z,54.70
2023-02-08T17:12:21.862Z,54.73
2023-02-08T17:15:07.873Z,55.25
2023-02-08T17:17:54.359Z,55.16
2023-02-08T17:20:40.240Z,55.04
2023-02-08T17:23:27.179Z,55.00
2023-02-08T17:26:17.459Z,54.92
2023-02-08T17:29:04.483Z,54.71
2023-02-08T17:31:51.292Z,55.01
2023-02-08T17:34:39.529Z,55.11
2023-02-08T17:37:26.366Z,55.44
2023-02-08T17:40:14.365Z,55.38
2023-02-08T17:43:01.745Z,55.30
2023-02-08T17:45:48.578Z,55.50
2023-02-08T17:48:35.345Z,55.59
2023-02-08T17:51:24.024Z,55.64
2023-02-08T17:54:12.156Z,55.87
2023-02-08T17:56:59.773Z,56.17
2023-02-08T17:59:46.756Z,56.44
2023-02-08T18:02:33.597Z,56.36
2023-02-08T18:05:24.152Z,56.67
2023-02-08T18:08:10.902Z,56.75
2023-02-08T18:11:06.234Z,58.82
2023-02-08T18:13:54.202Z,58.02
2023-02-08T18:16:41.146Z,58.58
2023-02-08T18:19:07.801Z,57.62
2023-02-08T18:21:52.647Z,57.18
2023-02-08T18:24:54.118Z,57.54
2023-02-08T18:27:40.010Z,57.62
2023-02-08T18:30:07.729Z,58.03
2023-02-08T18:32:34.214Z,58.26
2023-02-08T18:35:03.432Z,58.92
2023-02-08T18:37:30.656Z,58.82
2023-02-08T18:39:57.229Z,59.10
2023-02-08T18:42:23.691Z,59.10
2023-02-08T18:44:50.244Z,59.51
2023-02-08T18:47:16.771Z,59.96
2023-02-08T18:49:43.325Z,60.19
2023-02-08T18:52:11.819Z,60.64
2023-02-08T18:54:56.904Z,60.62
2023-02-08T18:57:23.490Z,61.50
2023-02-08T18:59:50.029Z,61.16
2023-02-08T19:02:36.548Z,61.32
2023-02-08T19:05:21.344Z,61.66
2023-02-08T19:07:47.846Z,62.09
2023-02-08T19:10:14.357Z,62.25
2023-02-08T19:12:58.083Z,61.98
2023-02-08T19:15:44.708Z,62.47
2023-02-08T19:18:32.924Z,62.33
2023-02-08T19:21:20.106Z,62.98
2023-02-08T19:23:48.245Z,62.47
2023-02-08T19:26:36.939Z,63.58
2023-02-08T19:29:22.755Z,63.15
2023-02-08T19:32:09.562Z,63.24
2023-02-08T19:34:56.988Z,62.52
2023-02-08T19:37:45.558Z,62.75
2023-02-08T19:40:32.396Z,62.63
2023-02-08T19:43:19.143Z,62.17
2023-02-08T19:45:46.306Z,62.32
2023-02-08T19:48:31.653Z,62.15
2023-02-08T19:51:17.873Z,62.48
2023-02-08T19:54:08.476Z,62.06
2023-02-08T19:56:55.770Z,62.57
2023-02-08T19:59:43.506Z,62.14
2023-02-08T20:02:30.267Z,62.50
2023-02-08T20:05:17.133Z,62.33
2023-02-08T20:08:04.064Z,62.45
2023-02-08T20:10:50.845Z,62.42
2023-02-08T20:13:37.743Z,62.08
2023-02-08T20:16:25.060Z,62.24
2023-02-08T20:19:13.096Z,62.59
2023-02-08T20:21:59.901Z,62.91
2023-02-08T20:24:46.929Z,62.52
2023-02-08T20:27:33.752Z,62.63
2023-02-08T20:30:00.741Z,63.23
2023-02-08T20:32:27.579Z,63.20
2023-02-08T20:34:59.890Z,62.44
2023-02-08T20:37:28.456Z,62.54
2023-02-08T20:40:15.382Z,62.92
2023-02-08T20:42:41.913Z,63.10
2023-02-08T20:45:08.964Z,62.92
2023-02-08T20:47:45.971Z,62.96
2023-02-08T20:50:19.520Z,63.73
2023-02-08T20:52:49.007Z,63.35
2023-02-08T20:55:34.371Z,64.07
2023-02-08T20:58:00.854Z,63.51
2023-02-08T21:00:36.756Z,63.48
2023-02-08T21:03:08.284Z,63.44
2023-02-08T21:05:34.812Z,63.86
2023-02-08T21:08:01.276Z,64.34
2023-02-08T21:10:27.706Z,63.84
2023-02-08T21:12:54.254Z,63.63
2023-02-08T21:15:20.794Z,64.32
2023-02-08T21:17:47.337Z,63.78
2023-02-08T21:20:15.032Z,63.94
2023-02-08T21:22:41.766Z,63.95
2023-02-08T21:25:26.764Z,64.04
2023-02-08T21:27:53.331Z,63.24
2023-02-08T21:30:20.558Z,64.06
2023-02-08T21:32:47.010Z,63.97
2023-02-08T21:35:13.490Z,64.34
2023-02-08T21:37:40.761Z,64.19
2023-02-08T21:40:07.419Z,63.80
2023-02-08T21:42:33.906Z,63.61
2023-02-08T21:45:00.417Z,63.94
2023-02-08T21:47:26.943Z,63.81
2023-02-08T21:50:12.151Z,63.57
2023-02-08T21:52:57.219Z,64.46
2023-02-08T21:55:23.759Z,64.63
2023-02-08T21:57:51.535Z,64.47
2023-02-08T22:00:18.132Z,64.72
2023-02-08T22:02:44.847Z,64.14
2023-02-08T22:05:29.934Z,65.40
2023-02-08T22:07:57.889Z,64.25
2023-02-08T22:10:27.678Z,65.34
2023-02-08T22:12:55.157Z,64.84
2023-02-08T22:15:25.287Z,65.05
2023-02-08T22:17:55.581Z,64.86
2023-02-08T22:20:22.346Z,64.46
2023-02-08T22:22:52.630Z,66.22
2023-02-08T22:25:21.156Z,66.99
2023-02-08T22:28:23.899Z,67.30
2023-02-08T22:30:50.905Z,66.85
2023-02-08T22:33:17.461Z,66.77
2023-02-08T22:35:43.932Z,66.41
2023-02-08T22:38:13.081Z,67.75
2023-02-08T22:40:41.718Z,66.98
2023-02-08T22:43:08.231Z,66.33
2023-02-08T22:45:34.775Z,67.41
2023-02-08T22:48:01.274Z,67.44
2023-02-08T22:50:27.822Z,66.69
2023-02-08T22:52:54.316Z,66.56
2023-02-08T22:55:25.672Z,66.91
2023-02-08T22:57:52.188Z,67.73
2023-02-08T23:00:18.769Z,67.91
2023-02-08T23:02:45.364Z,67.84
2023-02-08T23:05:12.042Z,68.76
2023-02-08T23:07:38.591Z,68.07
2023-02-08T23:10:05.192Z,68.83
2023-02-08T23:12:31.716Z,68.77
2023-02-08T23:14:58.155Z,68.72
2023-02-08T23:17:24.756Z,68.75
2023-02-08T23:19:52.524Z,69.62
2023-02-08T23:22:19.012Z,70.63
2023-02-08T23:24:45.612Z,71.18
2023-02-08T23:27:12.175Z,71.66
2023-02-08T23:29:38.689Z,70.91
2023-02-08T23:32:05.266Z,72.13
2023-02-08T23:34:34.162Z,70.72
2023-02-08T23:37:14.903Z,70.24
2023-02-08T23:39:41.655Z,71.53
2023-02-08T23:42:25.273Z,70.92
2023-02-08T23:44:56.315Z,71.10
2023-02-08T23:47:24.386Z,71.52
2023-02-08T23:49:51.455Z,71.86
2023-02-08T23:52:18.120Z,72.39
2023-02-08T23:54:51.114Z,71.81
2023-02-08T23:57:18.499Z,72.25
2023-02-08T23:59:44.971Z,72.91
